sensor_id;sensor_type;location;lat;lon;timestamp;pressure;altitude;pressure_sealevel;temperature;humidity
62111;BME280;48102;47.526;19.072;2023-07-20T03:42:53;99755.03;;;21.69;100.00
62111;BME280;48102;47.526;19.072;2023-07-20T03:45:56;99755.03;;;21.69;100.00
62111;BME280;48102;47.526;19.072;2023-07-20T03:48:59;99757.59;;;21.19;100.00
62111;BME280;48102;47.526;19.072;2023-07-20T03:52:02;99760.13;;;21.20;100.00
62111;BME280;48102;47.526;19.072;2023-07-20T03:55:08;99763.84;;;21.27;100.00
62111;BME280;48102;47.526;19.072;2023-07-20T03:58:12;99769.72;;;21.31;100.00
62111;BME280;48102;47.526;19.072;2023-07-20T04:01:15;99766.59;;;21.36;100.00
62111;BME280;48102;47.526;19.072;2023-07-20T04:04:19;99766.81;;;21.42;100.00
62111;BME280;48102;47.526;19.072;2023-07-20T04:07:23;99769.69;;;21.49;100.00
62111;BME280;48102;47.526;19.072;2023-07-20T04:10:26;99770.19;;;21.52;100.00
62111;BME280;48102;47.526;19.072;2023-07-20T04:13:28;99774.28;;;21.65;100.00
62111;BME280;48102;47.526;19.072;2023-07-20T04:16:31;99766.59;;;21.70;100.00
62111;BME280;48102;47.526;19.072;2023-07-20T04:19:35;99766.28;;;21.73;100.00
62111;BME280;48102;47.526;19.072;2023-07-20T04:22:39;99757.25;;;21.82;100.00
62111;BME280;48102;47.526;19.072;2023-07-20T04:25:42;99760.72;;;21.74;100.00
62111;BME280;48102;47.526;19.072;2023-07-20T04:28:46;99753.88;;;21.72;100.00
62111;BME280;48102;47.526;19.072;2023-07-20T04:31:50;99753.00;;;21.71;100.00
62111;BME280;48102;47.526;19.072;2023-07-20T04:34:54;99755.53;;;21.73;100.00
62111;BME280;48102;47.526;19.072;2023-07-20T04:37:56;99749.84;;;21.76;100.00
62111;BME280;48102;47.526;19.072;2023-07-20T04:41:00;99758.75;;;21.85;100.00
62111;BME280;48102;47.526;19.072;2023-07-20T04:44:03;99758.28;;;21.97;100.00
62111;BME280;48102;47.526;19.072;2023-07-20T04:47:07;99757.81;;;22.10;100.00
62111;BME280;48102;47.526;19.072;2023-07-20T04:50:11;99753.19;;;22.37;100.00
62111;BME280;48102;47.526;19.072;2023-07-20T04:53:14;99753.19;;;22.61;100.00
62111;BME280;48102;47.526;19.072;2023-07-20T04:56:17;99755.06;;;22.93;100.00
62111;BME280;48102;47.526;19.072;2023-07-20T04:59:21;99749.78;;;23.16;100.00
62111;BME280;48102;47.526;19.072;2023-07-20T05:02:24;99760.13;;;23.36;99.45
62111;BME280;48102;47.526;19.072;2023-07-20T05:05:27;99764.31;;;23.46;100.00
62111;BME280;48102;47.526;19.072;2023-07-20T05:08:29;99765.84;;;23.49;95.75
62111;BME280;48102;47.526;19.072;2023-07-20T05:11:33;99765.66;;;23.50;94.47
62111;BME280;48102;47.526;19.072;2023-07-20T05:14:36;99770.63;;;23.62;96.18
62111;BME280;48102;47.526;19.072;2023-07-20T05:17:39;99762.41;;;23.71;94.98
62111;BME280;48102;47.526;19.072;2023-07-20T05:20:42;99767.28;;;23.68;86.51
62111;BME280;48102;47.526;19.072;2023-07-20T05:23:45;99768.31;;;23.67;87.79
62111;BME280;48102;47.526;19.072;2023-07-20T05:26:48;99771.66;;;23.69;92.46
62111;BME280;48102;47.526;19.072;2023-07-20T05:29:52;99766.75;;;23.72;89.39
62111;BME280;48102;47.526;19.072;2023-07-20T05:32:55;99774.47;;;23.84;88.33
62111;BME280;48102;47.526;19.072;2023-07-20T05:35:58;99763.84;;;23.82;86.47
62111;BME280;48102;47.526;19.072;2023-07-20T05:39:01;99762.97;;;23.90;87.20
62111;BME280;48102;47.526;19.072;2023-07-20T05:42:04;99771.50;;;24.01;85.62
62111;BME280;48102;47.526;19.072;2023-07-20T05:45:07;99778.19;;;24.06;81.81
62111;BME280;48102;47.526;19.072;2023-07-20T05:48:10;99781.09;;;24.27;78.58
62111;BME280;48102;47.526;19.072;2023-07-20T05:51:14;99783.38;;;24.38;78.98
62111;BME280;48102;47.526;19.072;2023-07-20T05:54:17;99775.06;;;24.48;75.32
62111;BME280;48102;47.526;19.072;2023-07-20T05:57:19;99792.47;;;24.60;76.90
62111;BME280;48102;47.526;19.072;2023-07-20T06:00:22;99792.91;;;24.72;75.53
62111;BME280;48102;47.526;19.072;2023-07-20T06:03:29;99786.53;;;24.88;72.47
62111;BME280;48102;47.526;19.072;2023-07-20T06:06:33;99788.78;;;24.99;72.40
62111;BME280;48102;47.526;19.072;2023-07-20T06:09:36;99780.28;;;25.10;71.08
62111;BME280;48102;47.526;19.072;2023-07-20T06:12:39;99784.84;;;25.24;73.80
62111;BME280;48102;47.526;19.072;2023-07-20T06:15:42;99791.62;;;25.20;68.65
62111;BME280;48102;47.526;19.072;2023-07-20T06:18:45;99793.59;;;25.26;71.83
62111;BME280;48102;47.526;19.072;2023-07-20T06:21:49;99798.25;;;25.33;70.24
62111;BME280;48102;47.526;19.072;2023-07-20T06:24:52;99799.00;;;25.26;67.69
62111;BME280;48102;47.526;19.072;2023-07-20T06:27:55;99801.38;;;25.21;67.48
62111;BME280;48102;47.526;19.072;2023-07-20T06:31:02;99819.91;;;25.10;68.30
62111;BME280;48102;47.526;19.072;2023-07-20T06:34:05;99818.31;;;25.15;71.37
62111;BME280;48102;47.526;19.072;2023-07-20T06:37:08;99819.34;;;25.14;68.46
62111;BME280;48102;47.526;19.072;2023-07-20T06:40:12;99820.19;;;25.30;70.13
62111;BME280;48102;47.526;19.072;2023-07-20T06:43:17;99819.94;;;25.39;73.83
62111;BME280;48102;47.526;19.072;2023-07-20T06:46:26;99827.38;;;25.52;70.95
62111;BME280;48102;47.526;19.072;2023-07-20T06:49:29;99826.00;;;25.56;69.75
62111;BME280;48102;47.526;19.072;2023-07-20T06:52:33;99832.97;;;25.65;65.83
62111;BME280;48102;47.526;19.072;2023-07-20T06:55:36;99831.94;;;25.81;67.06
62111;BME280;48102;47.526;19.072;2023-07-20T06:58:44;99843.75;;;25.95;75.95
62111;BME280;48102;47.526;19.072;2023-07-20T07:01:46;99841.78;;;26.03;67.02
62111;BME280;48102;47.526;19.072;2023-07-20T07:04:50;99850.06;;;26.17;66.52
62111;BME280;48102;47.526;19.072;2023-07-20T07:08:02;99849.31;;;26.23;61.17
62111;BME280;48102;47.526;19.072;2023-07-20T07:11:05;99842.13;;;26.30;61.80
62111;BME280;48102;47.526;19.072;2023-07-20T07:14:08;99862.69;;;26.31;61.18
62111;BME280;48102;47.526;19.072;2023-07-20T07:17:11;99858.41;;;26.37;60.52
62111;BME280;48102;47.526;19.072;2023-07-20T07:20:15;99864.16;;;26.34;59.16
62111;BME280;48102;47.526;19.072;2023-07-20T07:23:21;99861.75;;;26.39;59.02
62111;BME280;48102;47.526;19.072;2023-07-20T07:26:24;99862.19;;;26.57;58.26
62111;BME280;48102;47.526;19.072;2023-07-20T07:29:27;99861.75;;;26.75;56.25
62111;BME280;48102;47.526;19.072;2023-07-20T07:32:31;99864.78;;;26.65;55.30
62111;BME280;48102;47.526;19.072;2023-07-20T07:35:34;99865.59;;;26.66;55.57
62111;BME280;48102;47.526;19.072;2023-07-20T07:38:37;99860.34;;;26.79;55.31
62111;BME280;48102;47.526;19.072;2023-07-20T07:42:00;99868.34;;;26.72;53.59
62111;BME280;48102;47.526;19.072;2023-07-20T07:45:04;99868.06;;;26.82;51.82
62111;BME280;48102;47.526;19.072;2023-07-20T07:48:07;99872.09;;;26.93;52.64
62111;BME280;48102;47.526;19.072;2023-07-20T07:51:10;99871.94;;;26.94;49.88
62111;BME280;48102;47.526;19.072;2023-07-20T07:54:13;99863.22;;;26.99;50.52
62111;BME280;48102;47.526;19.072;2023-07-20T07:57:16;99862.13;;;27.15;50.71
62111;BME280;48102;47.526;19.072;2023-07-20T08:00:19;99861.09;;;27.44;50.44
62111;BME280;48102;47.526;19.072;2023-07-20T08:03:21;99867.62;;;27.84;49.66
62111;BME280;48102;47.526;19.072;2023-07-20T08:06:27;99874.88;;;28.18;48.19
62111;BME280;48102;47.526;19.072;2023-07-20T08:09:30;99873.84;;;28.81;45.19
62111;BME280;48102;47.526;19.072;2023-07-20T08:12:33;99866.13;;;29.50;44.97
62111;BME280;48102;47.526;19.072;2023-07-20T08:15:35;99880.28;;;29.79;41.90
62111;BME280;48102;47.526;19.072;2023-07-20T08:18:38;99870.63;;;30.10;43.06
62111;BME280;48102;47.526;19.072;2023-07-20T08:21:41;99888.09;;;30.34;42.94
62111;BME280;48102;47.526;19.072;2023-07-20T08:24:44;99873.25;;;30.68;41.24
62111;BME280;48102;47.526;19.072;2023-07-20T08:27:47;99872.66;;;30.97;41.05
62111;BME280;48102;47.526;19.072;2023-07-20T08:30:50;99871.19;;;31.27;39.15
62111;BME280;48102;47.526;19.072;2023-07-20T08:33:53;99870.41;;;31.19;38.38
62111;BME280;48102;47.526;19.072;2023-07-20T08:36:57;99876.50;;;31.15;39.51
62111;BME280;48102;47.526;19.072;2023-07-20T08:40:00;99874.34;;;31.23;38.46
62111;BME280;48102;47.526;19.072;2023-07-20T08:43:03;99884.31;;;31.36;38.95
62111;BME280;48102;47.526;19.072;2023-07-20T08:46:06;99889.63;;;31.24;38.75
62111;BME280;48102;47.526;19.072;2023-07-20T08:49:11;99880.63;;;31.49;38.50
62111;BME280;48102;47.526;19.072;2023-07-20T08:52:14;99893.63;;;31.90;38.89
62111;BME280;48102;47.526;19.072;2023-07-20T08:55:20;99891.12;;;31.45;37.05
62111;BME280;48102;47.526;19.072;2023-07-20T08:58:25;99906.22;;;30.46;38.63
62111;BME280;48102;47.526;19.072;2023-07-20T09:01:29;99910.31;;;30.04;38.13
62111;BME280;48102;47.526;19.072;2023-07-20T09:04:32;99907.47;;;29.79;39.05
62111;BME280;48102;47.526;19.072;2023-07-20T09:07:36;99908.97;;;29.68;39.49
62111;BME280;48102;47.526;19.072;2023-07-20T09:10:39;99910.44;;;29.64;39.98
62111;BME280;48102;47.526;19.072;2023-07-20T09:13:42;99915.22;;;29.42;40.59
62111;BME280;48102;47.526;19.072;2023-07-20T09:16:54;99913.75;;;29.46;39.90
62111;BME280;48102;47.526;19.072;2023-07-20T09:19:58;99923.78;;;29.26;41.14
62111;BME280;48102;47.526;19.072;2023-07-20T09:23:04;99922.50;;;29.09;42.90
62111;BME280;48102;47.526;19.072;2023-07-20T09:26:10;99919.19;;;29.07;42.74
62111;BME280;48102;47.526;19.072;2023-07-20T09:29:14;99918.34;;;29.06;41.67
62111;BME280;48102;47.526;19.072;2023-07-20T09:32:21;99916.81;;;28.77;42.70
62111;BME280;48102;47.526;19.072;2023-07-20T09:35:27;99905.28;;;28.55;43.96
62111;BME280;48102;47.526;19.072;2023-07-20T09:38:44;99909.31;;;28.31;44.53
62111;BME280;48102;47.526;19.072;2023-07-20T09:41:51;99914.81;;;28.44;45.80
62111;BME280;48102;47.526;19.072;2023-07-20T09:45:14;99908.06;;;28.82;44.42
62111;BME280;48102;47.526;19.072;2023-07-20T09:48:17;99914.38;;;29.09;44.10
62111;BME280;48102;47.526;19.072;2023-07-20T09:51:28;99913.31;;;29.23;43.14
62111;BME280;48102;47.526;19.072;2023-07-20T09:54:31;99912.72;;;29.08;42.35
62111;BME280;48102;47.526;19.072;2023-07-20T09:57:35;99906.03;;;29.37;42.49
62111;BME280;48102;47.526;19.072;2023-07-20T10:00:39;99903.94;;;29.65;41.08
62111;BME280;48102;47.526;19.072;2023-07-20T10:03:46;99905.34;;;29.94;41.20
62111;BME280;48102;47.526;19.072;2023-07-20T10:06:50;99914.88;;;30.30;40.02
62111;BME280;48102;47.526;19.072;2023-07-20T10:09:59;99917.66;;;31.25;40.67
62111;BME280;48102;47.526;19.072;2023-07-20T10:13:04;99914.00;;;32.06;36.16
62111;BME280;48102;47.526;19.072;2023-07-20T10:16:14;99925.69;;;32.13;38.14
62111;BME280;48102;47.526;19.072;2023-07-20T10:22:53;99910.06;;;32.20;38.39
62111;BME280;48102;47.526;19.072;2023-07-20T10:26:01;99920.03;;;32.93;35.89
62111;BME280;48102;47.526;19.072;2023-07-20T10:29:05;99923.69;;;32.87;36.49
62111;BME280;48102;47.526;19.072;2023-07-20T10:32:08;99909.50;;;32.97;34.64
62111;BME280;48102;47.526;19.072;2023-07-20T10:35:16;99909.22;;;33.76;34.46
62111;BME280;48102;47.526;19.072;2023-07-20T10:38:19;99907.22;;;33.94;33.87
62111;BME280;48102;47.526;19.072;2023-07-20T10:41:37;99901.41;;;33.56;32.79
62111;BME280;48102;47.526;19.072;2023-07-20T10:44:40;99896.88;;;33.73;33.53
62111;BME280;48102;47.526;19.072;2023-07-20T10:47:46;99895.53;;;33.17;32.45
62111;BME280;48102;47.526;19.072;2023-07-20T10:51:19;99901.50;;;32.35;36.88
62111;BME280;48102;47.526;19.072;2023-07-20T10:57:30;99893.84;;;32.07;34.43
62111;BME280;48102;47.526;19.072;2023-07-20T11:00:33;99902.53;;;31.61;35.19
62111;BME280;48102;47.526;19.072;2023-07-20T11:03:37;99906.22;;;31.91;35.08
62111;BME280;48102;47.526;19.072;2023-07-20T11:06:43;99905.53;;;31.96;35.85
62111;BME280;48102;47.526;19.072;2023-07-20T11:09:46;99910.00;;;32.09;35.28
62111;BME280;48102;47.526;19.072;2023-07-20T11:16:41;99902.94;;;32.19;34.58
62111;BME280;48102;47.526;19.072;2023-07-20T11:19:48;99904.44;;;32.34;35.61
62111;BME280;48102;47.526;19.072;2023-07-20T11:22:54;99893.63;;;32.45;32.86
62111;BME280;48102;47.526;19.072;2023-07-20T11:25:58;99889.28;;;32.56;34.34
62111;BME280;48102;47.526;19.072;2023-07-20T11:29:02;99898.47;;;33.15;36.41
62111;BME280;48102;47.526;19.072;2023-07-20T11:32:23;99895.13;;;33.55;33.82
62111;BME280;48102;47.526;19.072;2023-07-20T11:35:26;99900.84;;;32.70;33.51
62111;BME280;48102;47.526;19.072;2023-07-20T11:38:29;99899.53;;;32.42;33.57
62111;BME280;48102;47.526;19.072;2023-07-20T11:41:32;99897.91;;;32.83;33.58
62111;BME280;48102;47.526;19.072;2023-07-20T11:44:35;99907.75;;;33.14;34.40
62111;BME280;48102;47.526;19.072;2023-07-20T11:47:41;99906.03;;;33.90;33.32
62111;BME280;48102;47.526;19.072;2023-07-20T11:50:47;99920.62;;;34.08;31.73
62111;BME280;48102;47.526;19.072;2023-07-20T11:53:50;99911.59;;;33.95;32.37
62111;BME280;48102;47.526;19.072;2023-07-20T11:56:54;99910.16;;;34.57;31.51
62111;BME280;48102;47.526;19.072;2023-07-20T12:00:02;99910.28;;;35.07;30.18
62111;BME280;48102;47.526;19.072;2023-07-20T12:03:12;99900.34;;;35.90;30.17
62111;BME280;48102;47.526;19.072;2023-07-20T12:06:15;99887.37;;;36.74;27.45
62111;BME280;48102;47.526;19.072;2023-07-20T12:09:18;99889.69;;;37.46;27.69
62111;BME280;48102;47.526;19.072;2023-07-20T12:12:21;99886.16;;;39.12;26.16
62111;BME280;48102;47.526;19.072;2023-07-20T12:15:27;99882.47;;;40.58;24.84
62111;BME280;48102;47.526;19.072;2023-07-20T12:18:35;99879.28;;;40.35;23.30
62111;BME280;48102;47.526;19.072;2023-07-20T12:21:41;99875.84;;;41.85;22.19
62111;BME280;48102;47.526;19.072;2023-07-20T12:24:45;99864.13;;;41.41;22.32
62111;BME280;48102;47.526;19.072;2023-07-20T12:27:48;99874.66;;;42.91;20.42
62111;BME280;48102;47.526;19.072;2023-07-20T12:30:51;99869.13;;;43.70;19.87
62111;BME280;48102;47.526;19.072;2023-07-20T12:33:59;99870.69;;;44.99;19.86
62111;BME280;48102;47.526;19.072;2023-07-20T12:37:03;99872.22;;;44.10;19.26
62111;BME280;48102;47.526;19.072;2023-07-20T12:40:07;99878.37;;;45.47;18.77
62111;BME280;48102;47.526;19.072;2023-07-20T12:43:13;99880.66;;;46.42;16.99
62111;BME280;48102;47.526;19.072;2023-07-20T12:46:16;99876.00;;;48.60;16.40
62111;BME280;48102;47.526;19.072;2023-07-20T12:49:19;99865.09;;;49.45;14.71
62111;BME280;48102;47.526;19.072;2023-07-20T12:52:22;99870.56;;;50.68;13.92
62111;BME280;48102;47.526;19.072;2023-07-20T12:55:25;99853.31;;;49.77;13.86
62111;BME280;48102;47.526;19.072;2023-07-20T12:58:27;99851.06;;;48.76;15.13
62111;BME280;48102;47.526;19.072;2023-07-20T13:01:30;99859.47;;;49.21;14.41
62111;BME280;48102;47.526;19.072;2023-07-20T13:04:34;99860.09;;;49.63;13.97
62111;BME280;48102;47.526;19.072;2023-07-20T13:07:38;99853.09;;;49.69;15.12
62111;BME280;48102;47.526;19.072;2023-07-20T13:10:44;99859.22;;;51.68;13.44
62111;BME280;48102;47.526;19.072;2023-07-20T13:13:47;99865.03;;;51.59;13.56
62111;BME280;48102;47.526;19.072;2023-07-20T13:16:50;99855.91;;;49.94;13.73
62111;BME280;48102;47.526;19.072;2023-07-20T13:19:53;99857.38;;;50.68;13.45
62111;BME280;48102;47.526;19.072;2023-07-20T13:22:56;99867.19;;;51.34;13.07
62111;BME280;48102;47.526;19.072;2023-07-20T13:25:59;99858.50;;;52.41;13.08
62111;BME280;48102;47.526;19.072;2023-07-20T13:29:01;99847.56;;;52.75;12.40
62111;BME280;48102;47.526;19.072;2023-07-20T13:32:05;99850.09;;;53.49;12.71
62111;BME280;48102;47.526;19.072;2023-07-20T13:35:09;99852.78;;;53.88;11.71
62111;BME280;48102;47.526;19.072;2023-07-20T13:38:13;99853.59;;;53.88;12.21
62111;BME280;48102;47.526;19.072;2023-07-20T13:41:16;99844.44;;;52.41;12.50
62111;BME280;48102;47.526;19.072;2023-07-20T13:44:21;99849.44;;;53.33;11.70
62111;BME280;48102;47.526;19.072;2023-07-20T13:47:24;99835.50;;;53.67;11.34
62111;BME280;48102;47.526;19.072;2023-07-20T13:50:27;99848.22;;;53.11;11.79
62111;BME280;48102;47.526;19.072;2023-07-20T13:53:41;99833.41;;;53.37;11.75
62111;BME280;48102;47.526;19.072;2023-07-20T13:56:47;99829.84;;;53.40;12.54
62111;BME280;48102;47.526;19.072;2023-07-20T13:59:50;99829.31;;;54.41;11.76
62111;BME280;48102;47.526;19.072;2023-07-20T14:02:54;99832.69;;;53.67;11.72
62111;BME280;48102;47.526;19.072;2023-07-20T14:05:59;99831.31;;;54.74;11.56
62111;BME280;48102;47.526;19.072;2023-07-20T14:09:05;99826.28;;;55.34;10.70
62111;BME280;48102;47.526;19.072;2023-07-20T14:12:08;99824.53;;;54.82;10.78
62111;BME280;48102;47.526;19.072;2023-07-20T14:15:21;99837.59;;;55.90;10.20
62111;BME280;48102;47.526;19.072;2023-07-20T14:18:24;99831.13;;;56.80;10.06
62111;BME280;48102;47.526;19.072;2023-07-20T14:21:27;99836.41;;;57.06;10.00
62111;BME280;48102;47.526;19.072;2023-07-20T14:24:31;99821.81;;;56.76;10.25
62111;BME280;48102;47.526;19.072;2023-07-20T14:27:34;99829.84;;;58.02;9.49
62111;BME280;48102;47.526;19.072;2023-07-20T14:30:40;99833.16;;;57.08;9.58
62111;BME280;48102;47.526;19.072;2023-07-20T14:33:43;99835.75;;;56.22;10.24
62111;BME280;48102;47.526;19.072;2023-07-20T14:36:46;99830.28;;;54.52;10.76
62111;BME280;48102;47.526;19.072;2023-07-20T14:39:49;99827.16;;;54.00;11.16
62111;BME280;48102;47.526;19.072;2023-07-20T14:42:52;99830.50;;;54.09;10.59
62111;BME280;48102;47.526;19.072;2023-07-20T14:45:55;99821.41;;;54.87;10.45
62111;BME280;48102;47.526;19.072;2023-07-20T14:48:58;99810.22;;;54.60;10.42
62111;BME280;48102;47.526;19.072;2023-07-20T14:52:02;99818.09;;;55.22;10.75
62111;BME280;48102;47.526;19.072;2023-07-20T14:55:16;99828.69;;;56.71;9.89
62111;BME280;48102;47.526;19.072;2023-07-20T14:58:19;99826.22;;;55.82;10.27
62111;BME280;48102;47.526;19.072;2023-07-20T15:01:23;99819.00;;;55.33;10.53
62111;BME280;48102;47.526;19.072;2023-07-20T15:04:26;99822.53;;;55.75;10.29
62111;BME280;48102;47.526;19.072;2023-07-20T15:07:30;99810.72;;;55.58;10.71
62111;BME280;48102;47.526;19.072;2023-07-20T15:10:32;99816.47;;;55.73;10.08
62111;BME280;48102;47.526;19.072;2023-07-20T15:13:35;99807.81;;;55.00;10.34
62111;BME280;48102;47.526;19.072;2023-07-20T15:16:38;99810.09;;;55.28;10.88
